Terminal Aerodrome Forecast
Issued by NWS

Home | Current Version | Previous Version | Text Only | Print | Product List | Glossary On
Versions: 1 2 3 4 5 6 7 8 9 10 11 12 13
000
FTUS46 KSEW 082337
TAFBFI
TAF
KBFI 082337Z 0900/0924 12007KT P6SM SCT050 BKN100 OVC200
      TEMPO 0900/0904 -SN
     FM090400 12008KT 3SM -SN SCT015 OVC035
      TEMPO 0904/0907 3/4SM -SN BR SCT008 OVC015
     FM090700 13007KT 5SM -RASN SCT015 OVC030
     FM090900 15006KT P6SM -RA BKN020 OVC035=

USA.gov is the U.S. government's official web portal to all federal, state and local government web resources and services.